PHNY METAR and TAF | Updated Today

PHNY METAR

Lanai Airport

Observation time: 28 min. ago

PHNY 061756Z AUTO 05007KT 10SM 21/19 A3022 RMK AO2 SLP216 T02060189 10206 20178 51017 $

Need help? Read our tutorial on how to read METARs or read the parsed version below.

Lanai Airport (PHNY) METAR

  • Weather conditions on Mon, 06 Feb 2023 17:56:00 +0000 (28 min. ago):
  • Present conditions: Dry
  • Clouds: Clear skies
  • Visibility: 16093 meters
  • Wind: 50 degrees at 7 knots
  • Temperature: 21 celsius
  • Dew point: 19 celsius
  • Pressure: 30.22 inHg
  • Remarks: AO2 SLP216 T02060189 10206 20178 51017 $


Useful to know...

PHNY TAF

Lanai Airport

PHNY 061731Z 0618/0718 05010KT P6SM FEW020 SCT035 FM062100 VRB06KT P6SM BKN025 FM070300 05011KT P6SM SCT020 SCT040
Observation time: 53 min. ago
Need help? Read our tutorial on how to read TAFs or read the parsed version below.

Parsed version of TAF for Lanai Airport (PHNY)

  • From 06 February at 18:00 UTC, to day 07 of the month at 18:00 UTC
  • Clouds: A few at 610 meters; scattered at 1067 meters
  • Wind: 50 degrees at 10
  • From day 6 of the month at 21:00 UTC
  • Clouds: Broken sky at 762 meters
  • Wind: Variable at 6
  • From day 7 of the month at 03:00 UTC
  • Clouds: Scattered at 610 meters; scattered at 1219 meters
  • Wind: 50 degrees at 11

Airports near PHNY